Fair Haven, New York
Current Conditions -  °F | °C
As of 8:54 AM on Monday 20 Oct 2014 (Local Time) from KFZY Reporting Station
Broken Clouds Broken Clouds  
Wind Chill: 39°   Ceiling: 10000
Heat Index: 43°   Visibility: 10mi
Dew Point: 35°   Wind: 7mph
Humidity: 74%   Direction: 170°S
Pressure: 29.97"   Gusts: NA
Location:  43.32°N, 76.7°W
Report Text: KFZY 201254Z AUTO 17006KT 10SM FEW038 BKN100 06/02 A2997 RMK AO2 SLP152 T00610017
Loading
Personal Weather Stations






























Interactive Weather Map
Tropical Storm Tracking
New forecast layout! Learn more

10-Day Weather Forecast

Advertisements
Track Severe Weather on mobile